sensor_id;sensor_type;location;lat;lon;timestamp;P1;durP1;ratioP1;P2;durP2;ratioP2
13218;SDS011;6674;49.152;11.918;2023-12-29T00:00:33;3.27;;;2.97;;
13218;SDS011;6674;49.152;11.918;2023-12-29T00:02:59;3.30;;;2.73;;
13218;SDS011;6674;49.152;11.918;2023-12-29T00:05:26;2.90;;;2.63;;
13218;SDS011;6674;49.152;11.918;2023-12-29T00:07:54;3.77;;;3.00;;
13218;SDS011;6674;49.152;11.918;2023-12-29T00:10:20;3.30;;;2.73;;
13218;SDS011;6674;49.152;11.918;2023-12-29T00:12:46;2.83;;;2.60;;
13218;SDS011;6674;49.152;11.918;2023-12-29T00:15:13;3.20;;;2.93;;
13218;SDS011;6674;49.152;11.918;2023-12-29T00:17:43;3.30;;;3.00;;
13218;SDS011;6674;49.152;11.918;2023-12-29T00:20:09;3.40;;;3.10;;
13218;SDS011;6674;49.152;11.918;2023-12-29T00:22:36;3.13;;;2.80;;
13218;SDS011;6674;49.152;11.918;2023-12-29T00:25:04;3.87;;;2.80;;
13218;SDS011;6674;49.152;11.918;2023-12-29T00:27:35;2.90;;;2.70;;
13218;SDS011;6674;49.152;11.918;2023-12-29T00:30:01;3.33;;;3.03;;
13218;SDS011;6674;49.152;11.918;2023-12-29T00:32:28;3.40;;;3.10;;
13218;SDS011;6674;49.152;11.918;2023-12-29T00:34:54;3.97;;;3.67;;
13218;SDS011;6674;49.152;11.918;2023-12-29T00:37:21;3.40;;;3.10;;
13218;SDS011;6674;49.152;11.918;2023-12-29T00:39:47;4.70;;;3.57;;
13218;SDS011;6674;49.152;11.918;2023-12-29T00:42:15;3.93;;;3.60;;
13218;SDS011;6674;49.152;11.918;2023-12-29T00:44:41;3.97;;;3.67;;
13218;SDS011;6674;49.152;11.918;2023-12-29T00:47:08;4.03;;;3.60;;
13218;SDS011;6674;49.152;11.918;2023-12-29T00:49:37;3.80;;;3.50;;
13218;SDS011;6674;49.152;11.918;2023-12-29T00:52:04;4.30;;;3.93;;
13218;SDS011;6674;49.152;11.918;2023-12-29T00:54:30;4.30;;;3.90;;
13218;SDS011;6674;49.152;11.918;2023-12-29T00:56:57;4.30;;;3.90;;
13218;SDS011;6674;49.152;11.918;2023-12-29T00:59:24;4.73;;;4.33;;
13218;SDS011;6674;49.152;11.918;2023-12-29T01:01:51;4.50;;;4.10;;
13218;SDS011;6674;49.152;11.918;2023-12-29T01:04:17;5.87;;;4.40;;
13218;SDS011;6674;49.152;11.918;2023-12-29T01:06:44;4.73;;;4.33;;
13218;SDS011;6674;49.152;11.918;2023-12-29T01:09:10;4.27;;;3.87;;
13218;SDS011;6674;49.152;11.918;2023-12-29T01:11:37;3.80;;;3.50;;
13218;SDS011;6674;49.152;11.918;2023-12-29T01:14:03;4.57;;;4.13;;
13218;SDS011;6674;49.152;11.918;2023-12-29T01:16:32;5.20;;;4.00;;
13218;SDS011;6674;49.152;11.918;2023-12-29T01:18:58;4.83;;;4.43;;
13218;SDS011;6674;49.152;11.918;2023-12-29T01:21:24;4.70;;;4.30;;
13218;SDS011;6674;49.152;11.918;2023-12-29T01:23:51;5.10;;;4.60;;
13218;SDS011;6674;49.152;11.918;2023-12-29T01:26:17;5.20;;;4.20;;
13218;SDS011;6674;49.152;11.918;2023-12-29T01:28:44;4.20;;;3.87;;
13218;SDS011;6674;49.152;11.918;2023-12-29T01:31:10;4.47;;;4.03;;
13218;SDS011;6674;49.152;11.918;2023-12-29T01:33:39;4.23;;;3.93;;
13218;SDS011;6674;49.152;11.918;2023-12-29T01:36:06;4.43;;;4.03;;
13218;SDS011;6674;49.152;11.918;2023-12-29T01:38:32;4.47;;;4.03;;
13218;SDS011;6674;49.152;11.918;2023-12-29T01:40:59;4.77;;;4.37;;
13218;SDS011;6674;49.152;11.918;2023-12-29T01:43:25;4.17;;;3.87;;
13218;SDS011;6674;49.152;11.918;2023-12-29T01:45:51;4.30;;;3.90;;
13218;SDS011;6674;49.152;11.918;2023-12-29T01:48:18;4.63;;;4.13;;
13218;SDS011;6674;49.152;11.918;2023-12-29T01:50:46;4.40;;;4.00;;
13218;SDS011;6674;49.152;11.918;2023-12-29T01:53:12;5.03;;;4.60;;
13218;SDS011;6674;49.152;11.918;2023-12-29T01:55:39;4.20;;;3.80;;
13218;SDS011;6674;49.152;11.918;2023-12-29T01:58:05;4.30;;;3.90;;
13218;SDS011;6674;49.152;11.918;2023-12-29T02:00:32;4.53;;;4.13;;
13218;SDS011;6674;49.152;11.918;2023-12-29T02:02:59;4.70;;;4.00;;
13218;SDS011;6674;49.152;11.918;2023-12-29T02:05:26;4.60;;;3.87;;
13218;SDS011;6674;49.152;11.918;2023-12-29T02:07:54;5.40;;;4.40;;
13218;SDS011;6674;49.152;11.918;2023-12-29T02:10:20;5.10;;;4.30;;
13218;SDS011;6674;49.152;11.918;2023-12-29T02:12:47;4.07;;;3.77;;
13218;SDS011;6674;49.152;11.918;2023-12-29T02:15:14;4.53;;;4.13;;
13218;SDS011;6674;49.152;11.918;2023-12-29T02:17:43;4.87;;;3.70;;
13218;SDS011;6674;49.152;11.918;2023-12-29T02:20:11;4.60;;;4.10;;
13218;SDS011;6674;49.152;11.918;2023-12-29T02:22:37;4.47;;;4.07;;
13218;SDS011;6674;49.152;11.918;2023-12-29T02:25:05;4.13;;;3.73;;
13218;SDS011;6674;49.152;11.918;2023-12-29T02:27:34;4.27;;;3.87;;
13218;SDS011;6674;49.152;11.918;2023-12-29T02:30:08;4.17;;;3.70;;
13218;SDS011;6674;49.152;11.918;2023-12-29T02:32:35;4.63;;;4.23;;
13218;SDS011;6674;49.152;11.918;2023-12-29T02:35:02;4.50;;;4.10;;
13218;SDS011;6674;49.152;11.918;2023-12-29T02:37:32;4.20;;;3.90;;
13218;SDS011;6674;49.152;11.918;2023-12-29T02:39:59;3.90;;;3.50;;
13218;SDS011;6674;49.152;11.918;2023-12-29T02:42:27;4.53;;;4.13;;
13218;SDS011;6674;49.152;11.918;2023-12-29T02:44:53;4.40;;;4.00;;
13218;SDS011;6674;49.152;11.918;2023-12-29T02:47:20;5.80;;;4.37;;
13218;SDS011;6674;49.152;11.918;2023-12-29T02:49:46;4.67;;;4.27;;
13218;SDS011;6674;49.152;11.918;2023-12-29T02:52:14;4.60;;;4.20;;
13218;SDS011;6674;49.152;11.918;2023-12-29T02:54:40;5.10;;;4.60;;
13218;SDS011;6674;49.152;11.918;2023-12-29T02:57:07;4.83;;;4.30;;
13218;SDS011;6674;49.152;11.918;2023-12-29T02:59:34;4.73;;;4.30;;
13218;SDS011;6674;49.152;11.918;2023-12-29T03:02:02;4.83;;;4.20;;
13218;SDS011;6674;49.152;11.918;2023-12-29T03:04:29;5.07;;;4.57;;
13218;SDS011;6674;49.152;11.918;2023-12-29T03:06:55;4.30;;;3.90;;
13218;SDS011;6674;49.152;11.918;2023-12-29T03:09:21;4.23;;;3.83;;
13218;SDS011;6674;49.152;11.918;2023-12-29T03:11:48;4.67;;;4.27;;
13218;SDS011;6674;49.152;11.918;2023-12-29T03:14:14;4.57;;;4.17;;
13218;SDS011;6674;49.152;11.918;2023-12-29T03:16:42;5.03;;;4.53;;
13218;SDS011;6674;49.152;11.918;2023-12-29T03:19:08;4.87;;;4.40;;
13218;SDS011;6674;49.152;11.918;2023-12-29T03:21:35;5.57;;;4.47;;
13218;SDS011;6674;49.152;11.918;2023-12-29T03:24:01;5.60;;;4.40;;
13218;SDS011;6674;49.152;11.918;2023-12-29T03:26:27;4.20;;;3.90;;
13218;SDS011;6674;49.152;11.918;2023-12-29T03:28:54;5.03;;;4.63;;
13218;SDS011;6674;49.152;11.918;2023-12-29T03:31:22;5.17;;;4.63;;
13218;SDS011;6674;49.152;11.918;2023-12-29T03:33:50;4.50;;;4.10;;
13218;SDS011;6674;49.152;11.918;2023-12-29T03:36:16;4.90;;;4.50;;
13218;SDS011;6674;49.152;11.918;2023-12-29T03:38:42;6.23;;;4.87;;
13218;SDS011;6674;49.152;11.918;2023-12-29T03:41:09;5.33;;;4.73;;
13218;SDS011;6674;49.152;11.918;2023-12-29T03:43:36;5.40;;;4.60;;
13218;SDS011;6674;49.152;11.918;2023-12-29T03:46:03;4.73;;;4.33;;
13218;SDS011;6674;49.152;11.918;2023-12-29T03:48:29;5.37;;;4.87;;
13218;SDS011;6674;49.152;11.918;2023-12-29T03:50:57;5.40;;;4.90;;
13218;SDS011;6674;49.152;11.918;2023-12-29T03:53:23;4.90;;;4.50;;
13218;SDS011;6674;49.152;11.918;2023-12-29T03:55:50;5.27;;;4.77;;
13218;SDS011;6674;49.152;11.918;2023-12-29T03:58:17;5.40;;;4.90;;
13218;SDS011;6674;49.152;11.918;2023-12-29T04:00:45;5.30;;;4.80;;
13218;SDS011;6674;49.152;11.918;2023-12-29T04:03:11;5.63;;;5.03;;
13218;SDS011;6674;49.152;11.918;2023-12-29T04:05:37;5.20;;;4.70;;
13218;SDS011;6674;49.152;11.918;2023-12-29T04:08:06;5.10;;;4.70;;
13218;SDS011;6674;49.152;11.918;2023-12-29T04:10:32;5.30;;;4.70;;
13218;SDS011;6674;49.152;11.918;2023-12-29T04:12:58;5.60;;;5.10;;
13218;SDS011;6674;49.152;11.918;2023-12-29T04:15:26;5.53;;;5.03;;
13218;SDS011;6674;49.152;11.918;2023-12-29T04:17:52;5.10;;;4.60;;
13218;SDS011;6674;49.152;11.918;2023-12-29T04:20:18;5.73;;;5.23;;
13218;SDS011;6674;49.152;11.918;2023-12-29T04:22:46;5.23;;;4.73;;
13218;SDS011;6674;49.152;11.918;2023-12-29T04:25:14;5.13;;;4.63;;
13218;SDS011;6674;49.152;11.918;2023-12-29T04:27:40;4.93;;;4.43;;
13218;SDS011;6674;49.152;11.918;2023-12-29T04:30:07;5.00;;;4.50;;
13218;SDS011;6674;49.152;11.918;2023-12-29T04:32:33;4.77;;;4.30;;
13218;SDS011;6674;49.152;11.918;2023-12-29T04:35:00;5.30;;;4.83;;
13218;SDS011;6674;49.152;11.918;2023-12-29T04:37:26;5.30;;;4.30;;
13218;SDS011;6674;49.152;11.918;2023-12-29T04:39:53;5.47;;;4.60;;
13218;SDS011;6674;49.152;11.918;2023-12-29T04:42:20;5.40;;;4.63;;
13218;SDS011;6674;49.152;11.918;2023-12-29T04:44:47;5.27;;;4.77;;
13218;SDS011;6674;49.152;11.918;2023-12-29T04:47:13;6.00;;;5.10;;
13218;SDS011;6674;49.152;11.918;2023-12-29T04:49:39;6.43;;;4.80;;
13218;SDS011;6674;49.152;11.918;2023-12-29T04:52:06;5.27;;;4.77;;
13218;SDS011;6674;49.152;11.918;2023-12-29T04:54:32;5.07;;;4.67;;
13218;SDS011;6674;49.152;11.918;2023-12-29T04:56:59;5.30;;;4.73;;
13218;SDS011;6674;49.152;11.918;2023-12-29T04:59:26;5.40;;;4.90;;
13218;SDS011;6674;49.152;11.918;2023-12-29T05:01:53;6.23;;;5.17;;
13218;SDS011;6674;49.152;11.918;2023-12-29T05:04:20;5.50;;;5.00;;
13218;SDS011;6674;49.152;11.918;2023-12-29T05:06:47;5.57;;;5.07;;
13218;SDS011;6674;49.152;11.918;2023-12-29T05:09:13;5.97;;;5.40;;
13218;SDS011;6674;49.152;11.918;2023-12-29T05:11:40;5.63;;;5.13;;
13218;SDS011;6674;49.152;11.918;2023-12-29T05:14:06;5.27;;;4.77;;
13218;SDS011;6674;49.152;11.918;2023-12-29T05:16:33;5.27;;;4.77;;
13218;SDS011;6674;49.152;11.918;2023-12-29T05:18:59;5.17;;;4.67;;
13218;SDS011;6674;49.152;11.918;2023-12-29T05:21:25;4.53;;;3.97;;
13218;SDS011;6674;49.152;11.918;2023-12-29T05:23:52;4.87;;;4.33;;
13218;SDS011;6674;49.152;11.918;2023-12-29T05:26:18;4.90;;;4.40;;
13218;SDS011;6674;49.152;11.918;2023-12-29T05:28:45;4.33;;;3.93;;
13218;SDS011;6674;49.152;11.918;2023-12-29T05:31:11;4.43;;;4.10;;
13218;SDS011;6674;49.152;11.918;2023-12-29T05:33:39;4.83;;;4.37;;
13218;SDS011;6674;49.152;11.918;2023-12-29T05:36:06;5.30;;;4.80;;
13218;SDS011;6674;49.152;11.918;2023-12-29T05:38:34;4.93;;;4.43;;
13218;SDS011;6674;49.152;11.918;2023-12-29T05:41:01;4.80;;;4.40;;
13218;SDS011;6674;49.152;11.918;2023-12-29T05:43:28;5.50;;;5.00;;
13218;SDS011;6674;49.152;11.918;2023-12-29T05:45:54;4.73;;;4.30;;
13218;SDS011;6674;49.152;11.918;2023-12-29T05:48:21;5.43;;;4.80;;
13218;SDS011;6674;49.152;11.918;2023-12-29T05:50:50;5.70;;;5.20;;
13218;SDS011;6674;49.152;11.918;2023-12-29T05:53:16;6.60;;;5.03;;
13218;SDS011;6674;49.152;11.918;2023-12-29T05:55:43;5.30;;;4.80;;
13218;SDS011;6674;49.152;11.918;2023-12-29T05:58:09;6.10;;;5.50;;
13218;SDS011;6674;49.152;11.918;2023-12-29T06:00:36;5.53;;;4.97;;
13218;SDS011;6674;49.152;11.918;2023-12-29T06:03:02;5.27;;;4.80;;
13218;SDS011;6674;49.152;11.918;2023-12-29T06:05:29;5.43;;;4.93;;
13218;SDS011;6674;49.152;11.918;2023-12-29T06:07:57;5.77;;;5.20;;
13218;SDS011;6674;49.152;11.918;2023-12-29T06:10:24;5.07;;;4.57;;
13218;SDS011;6674;49.152;11.918;2023-12-29T06:12:50;5.67;;;5.17;;
13218;SDS011;6674;49.152;11.918;2023-12-29T06:15:17;5.00;;;4.50;;
13218;SDS011;6674;49.152;11.918;2023-12-29T06:17:43;5.13;;;4.63;;
13218;SDS011;6674;49.152;11.918;2023-12-29T06:20:10;4.90;;;4.40;;
13218;SDS011;6674;49.152;11.918;2023-12-29T06:22:38;4.97;;;4.40;;
13218;SDS011;6674;49.152;11.918;2023-12-29T06:25:06;5.77;;;5.23;;
13218;SDS011;6674;49.152;11.918;2023-12-29T06:27:34;5.67;;;4.80;;
13218;SDS011;6674;49.152;11.918;2023-12-29T06:30:02;6.20;;;5.30;;
13218;SDS011;6674;49.152;11.918;2023-12-29T06:32:29;5.10;;;4.67;;
13218;SDS011;6674;49.152;11.918;2023-12-29T06:34:55;6.17;;;4.83;;
13218;SDS011;6674;49.152;11.918;2023-12-29T06:37:21;5.83;;;5.33;;
13218;SDS011;6674;49.152;11.918;2023-12-29T06:39:48;5.07;;;4.30;;
13218;SDS011;6674;49.152;11.918;2023-12-29T06:42:15;5.17;;;4.67;;
13218;SDS011;6674;49.152;11.918;2023-12-29T06:44:42;6.07;;;5.47;;
13218;SDS011;6674;49.152;11.918;2023-12-29T06:47:08;5.80;;;5.00;;
13218;SDS011;6674;49.152;11.918;2023-12-29T06:49:34;6.27;;;5.43;;
13218;SDS011;6674;49.152;11.918;2023-12-29T06:52:01;5.47;;;4.97;;
13218;SDS011;6674;49.152;11.918;2023-12-29T06:54:27;5.77;;;5.23;;
13218;SDS011;6674;49.152;11.918;2023-12-29T06:56:54;6.07;;;4.87;;
13218;SDS011;6674;49.152;11.918;2023-12-29T06:59:22;5.40;;;4.90;;
13218;SDS011;6674;49.152;11.918;2023-12-29T07:01:48;6.10;;;5.50;;
13218;SDS011;6674;49.152;11.918;2023-12-29T07:04:14;5.87;;;5.37;;
13218;SDS011;6674;49.152;11.918;2023-12-29T07:06:41;6.77;;;6.00;;
13218;SDS011;6674;49.152;11.918;2023-12-29T07:09:08;6.70;;;6.03;;
13218;SDS011;6674;49.152;11.918;2023-12-29T07:11:34;7.00;;;6.30;;
13218;SDS011;6674;49.152;11.918;2023-12-29T07:14:01;7.07;;;6.37;;
13218;SDS011;6674;49.152;11.918;2023-12-29T07:16:28;7.30;;;6.60;;
13218;SDS011;6674;49.152;11.918;2023-12-29T07:18:55;7.53;;;6.17;;
13218;SDS011;6674;49.152;11.918;2023-12-29T07:21:21;7.30;;;6.60;;
13218;SDS011;6674;49.152;11.918;2023-12-29T07:23:48;6.60;;;6.00;;
13218;SDS011;6674;49.152;11.918;2023-12-29T07:26:14;6.70;;;5.80;;
13218;SDS011;6674;49.152;11.918;2023-12-29T07:28:40;6.73;;;6.13;;
13218;SDS011;6674;49.152;11.918;2023-12-29T07:31:07;6.63;;;6.00;;
13218;SDS011;6674;49.152;11.918;2023-12-29T07:33:35;6.77;;;6.17;;
13218;SDS011;6674;49.152;11.918;2023-12-29T07:36:01;6.27;;;5.50;;
13218;SDS011;6674;49.152;11.918;2023-12-29T07:38:27;6.67;;;6.07;;
13218;SDS011;6674;49.152;11.918;2023-12-29T07:40:55;7.17;;;6.23;;
13218;SDS011;6674;49.152;11.918;2023-12-29T07:43:21;6.60;;;6.00;;
13218;SDS011;6674;49.152;11.918;2023-12-29T07:45:48;5.93;;;5.33;;
13218;SDS011;6674;49.152;11.918;2023-12-29T07:48:14;6.23;;;5.63;;
13218;SDS011;6674;49.152;11.918;2023-12-29T07:50:42;6.17;;;5.57;;
13218;SDS011;6674;49.152;11.918;2023-12-29T07:53:08;6.27;;;5.67;;
13218;SDS011;6674;49.152;11.918;2023-12-29T07:55:37;5.83;;;5.23;;
13218;SDS011;6674;49.152;11.918;2023-12-29T07:58:03;6.30;;;5.70;;
13218;SDS011;6674;49.152;11.918;2023-12-29T08:00:30;6.83;;;5.37;;
13218;SDS011;6674;49.152;11.918;2023-12-29T08:02:56;6.30;;;5.67;;
13218;SDS011;6674;49.152;11.918;2023-12-29T08:05:24;6.40;;;5.80;;
13218;SDS011;6674;49.152;11.918;2023-12-29T08:07:52;7.10;;;5.60;;
13218;SDS011;6674;49.152;11.918;2023-12-29T08:10:20;5.57;;;5.07;;
13218;SDS011;6674;49.152;11.918;2023-12-29T08:12:46;5.63;;;5.13;;
13218;SDS011;6674;49.152;11.918;2023-12-29T08:15:12;5.27;;;4.77;;
13218;SDS011;6674;49.152;11.918;2023-12-29T08:17:39;6.07;;;5.47;;
13218;SDS011;6674;49.152;11.918;2023-12-29T08:20:06;5.40;;;4.90;;
13218;SDS011;6674;49.152;11.918;2023-12-29T08:22:32;6.93;;;4.90;;
13218;SDS011;6674;49.152;11.918;2023-12-29T08:25:02;5.53;;;5.03;;
13218;SDS011;6674;49.152;11.918;2023-12-29T08:27:29;5.10;;;4.60;;
13218;SDS011;6674;49.152;11.918;2023-12-29T08:29:55;5.23;;;4.73;;
13218;SDS011;6674;49.152;11.918;2023-12-29T08:32:21;5.17;;;4.67;;
13218;SDS011;6674;49.152;11.918;2023-12-29T08:34:48;5.50;;;5.00;;
13218;SDS011;6674;49.152;11.918;2023-12-29T08:37:14;5.33;;;4.40;;
13218;SDS011;6674;49.152;11.918;2023-12-29T08:39:45;5.10;;;4.60;;
13218;SDS011;6674;49.152;11.918;2023-12-29T08:42:12;4.90;;;4.50;;
13218;SDS011;6674;49.152;11.918;2023-12-29T08:44:39;5.13;;;4.73;;
13218;SDS011;6674;49.152;11.918;2023-12-29T08:47:05;4.53;;;4.13;;
13218;SDS011;6674;49.152;11.918;2023-12-29T08:49:33;4.90;;;4.40;;
13218;SDS011;6674;49.152;11.918;2023-12-29T08:51:59;5.23;;;4.60;;
13218;SDS011;6674;49.152;11.918;2023-12-29T08:54:26;4.97;;;4.47;;
13218;SDS011;6674;49.152;11.918;2023-12-29T08:56:52;5.30;;;4.80;;
13218;SDS011;6674;49.152;11.918;2023-12-29T08:59:20;4.43;;;4.13;;
13218;SDS011;6674;49.152;11.918;2023-12-29T09:01:46;4.73;;;4.33;;
13218;SDS011;6674;49.152;11.918;2023-12-29T09:04:13;6.13;;;4.60;;
13218;SDS011;6674;49.152;11.918;2023-12-29T09:06:39;5.53;;;4.37;;
13218;SDS011;6674;49.152;11.918;2023-12-29T09:09:05;6.00;;;4.80;;
13218;SDS011;6674;49.152;11.918;2023-12-29T09:11:32;5.10;;;4.60;;
13218;SDS011;6674;49.152;11.918;2023-12-29T09:13:58;4.63;;;4.30;;
13218;SDS011;6674;49.152;11.918;2023-12-29T09:16:26;5.80;;;4.67;;
13218;SDS011;6674;49.152;11.918;2023-12-29T09:18:52;4.57;;;4.17;;
13218;SDS011;6674;49.152;11.918;2023-12-29T09:21:19;4.57;;;4.17;;
13218;SDS011;6674;49.152;11.918;2023-12-29T09:23:45;4.60;;;4.10;;
13218;SDS011;6674;49.152;11.918;2023-12-29T09:26:12;4.77;;;4.37;;
13218;SDS011;6674;49.152;11.918;2023-12-29T09:28:41;5.60;;;4.40;;
13218;SDS011;6674;49.152;11.918;2023-12-29T09:31:08;4.60;;;4.20;;
13218;SDS011;6674;49.152;11.918;2023-12-29T09:33:35;4.53;;;3.87;;
13218;SDS011;6674;49.152;11.918;2023-12-29T09:36:02;4.47;;;3.93;;
13218;SDS011;6674;49.152;11.918;2023-12-29T09:38:29;4.37;;;4.00;;
13218;SDS011;6674;49.152;11.918;2023-12-29T09:40:57;4.47;;;4.07;;
13218;SDS011;6674;49.152;11.918;2023-12-29T09:43:25;4.33;;;3.93;;
13218;SDS011;6674;49.152;11.918;2023-12-29T09:45:52;4.13;;;3.83;;
13218;SDS011;6674;49.152;11.918;2023-12-29T09:48:18;3.90;;;3.60;;
13218;SDS011;6674;49.152;11.918;2023-12-29T09:50:47;4.37;;;3.97;;
13218;SDS011;6674;49.152;11.918;2023-12-29T09:53:15;4.63;;;4.10;;
13218;SDS011;6674;49.152;11.918;2023-12-29T09:55:42;4.70;;;4.30;;
13218;SDS011;6674;49.152;11.918;2023-12-29T09:58:11;4.50;;;4.10;;
13218;SDS011;6674;49.152;11.918;2023-12-29T10:00:38;4.13;;;3.83;;
13218;SDS011;6674;49.152;11.918;2023-12-29T10:03:05;3.87;;;3.57;;
13218;SDS011;6674;49.152;11.918;2023-12-29T10:05:32;3.83;;;3.53;;
13218;SDS011;6674;49.152;11.918;2023-12-29T10:08:01;4.20;;;3.43;;
13218;SDS011;6674;49.152;11.918;2023-12-29T10:10:29;4.53;;;3.80;;
13218;SDS011;6674;49.152;11.918;2023-12-29T10:12:57;4.17;;;3.77;;
13218;SDS011;6674;49.152;11.918;2023-12-29T10:15:24;3.77;;;3.47;;
13218;SDS011;6674;49.152;11.918;2023-12-29T10:17:55;3.73;;;3.43;;
13218;SDS011;6674;49.152;11.918;2023-12-29T10:20:30;3.70;;;3.40;;
13218;SDS011;6674;49.152;11.918;2023-12-29T10:23:05;4.13;;;3.70;;
13218;SDS011;6674;49.152;11.918;2023-12-29T10:25:33;3.87;;;3.57;;
13218;SDS011;6674;49.152;11.918;2023-12-29T10:28:00;3.80;;;3.50;;
13218;SDS011;6674;49.152;11.918;2023-12-29T10:30:26;4.03;;;3.63;;
13218;SDS011;6674;49.152;11.918;2023-12-29T10:32:53;4.17;;;3.87;;
13218;SDS011;6674;49.152;11.918;2023-12-29T10:35:21;4.83;;;3.87;;
13218;SDS011;6674;49.152;11.918;2023-12-29T10:37:48;4.23;;;3.87;;
13218;SDS011;6674;49.152;11.918;2023-12-29T10:40:17;3.07;;;2.77;;
13218;SDS011;6674;49.152;11.918;2023-12-29T10:42:51;3.63;;;3.30;;
13218;SDS011;6674;49.152;11.918;2023-12-29T10:45:17;4.20;;;3.40;;
13218;SDS011;6674;49.152;11.918;2023-12-29T10:47:44;4.10;;;3.47;;
13218;SDS011;6674;49.152;11.918;2023-12-29T10:50:10;3.73;;;3.43;;
13218;SDS011;6674;49.152;11.918;2023-12-29T10:52:37;3.33;;;3.03;;
13218;SDS011;6674;49.152;11.918;2023-12-29T10:55:06;3.70;;;3.40;;
13218;SDS011;6674;49.152;11.918;2023-12-29T10:57:34;3.90;;;3.50;;
13218;SDS011;6674;49.152;11.918;2023-12-29T11:00:01;4.20;;;3.80;;
13218;SDS011;6674;49.152;11.918;2023-12-29T11:02:29;3.67;;;3.30;;
13218;SDS011;6674;49.152;11.918;2023-12-29T11:05:05;3.93;;;3.63;;
13218;SDS011;6674;49.152;11.918;2023-12-29T11:07:33;4.03;;;3.73;;
13218;SDS011;6674;49.152;11.918;2023-12-29T11:10:00;4.37;;;3.60;;
13218;SDS011;6674;49.152;11.918;2023-12-29T11:12:26;3.93;;;3.63;;
13218;SDS011;6674;49.152;11.918;2023-12-29T11:14:54;4.77;;;4.00;;
13218;SDS011;6674;49.152;11.918;2023-12-29T11:17:21;4.33;;;3.93;;
13218;SDS011;6674;49.152;11.918;2023-12-29T11:19:48;4.50;;;4.10;;
13218;SDS011;6674;49.152;11.918;2023-12-29T11:22:15;4.73;;;4.20;;
13218;SDS011;6674;49.152;11.918;2023-12-29T11:24:45;4.23;;;3.90;;
13218;SDS011;6674;49.152;11.918;2023-12-29T11:27:12;4.50;;;4.10;;
13218;SDS011;6674;49.152;11.918;2023-12-29T11:29:39;4.20;;;3.80;;
13218;SDS011;6674;49.152;11.918;2023-12-29T11:32:11;4.90;;;4.40;;
13218;SDS011;6674;49.152;11.918;2023-12-29T11:34:39;4.30;;;3.90;;
13218;SDS011;6674;49.152;11.918;2023-12-29T11:37:11;4.00;;;3.50;;
13218;SDS011;6674;49.152;11.918;2023-12-29T11:39:43;3.50;;;3.20;;
13218;SDS011;6674;49.152;11.918;2023-12-29T11:42:17;3.77;;;3.47;;
13218;SDS011;6674;49.152;11.918;2023-12-29T11:44:45;4.27;;;3.57;;
13218;SDS011;6674;49.152;11.918;2023-12-29T11:47:35;3.70;;;3.40;;
13218;SDS011;6674;49.152;11.918;2023-12-29T11:50:04;3.47;;;3.17;;
13218;SDS011;6674;49.152;11.918;2023-12-29T11:52:34;4.47;;;3.33;;
13218;SDS011;6674;49.152;11.918;2023-12-29T11:55:08;3.67;;;3.37;;
13218;SDS011;6674;49.152;11.918;2023-12-29T11:57:36;3.70;;;3.40;;
13218;SDS011;6674;49.152;11.918;2023-12-29T12:00:05;3.70;;;3.30;;
13218;SDS011;6674;49.152;11.918;2023-12-29T12:02:32;3.93;;;3.53;;
13218;SDS011;6674;49.152;11.918;2023-12-29T12:05:00;3.47;;;3.17;;
13218;SDS011;6674;49.152;11.918;2023-12-29T12:10:30;3.83;;;3.20;;
13218;SDS011;6674;49.152;11.918;2023-12-29T12:12:58;4.13;;;3.40;;
13218;SDS011;6674;49.152;11.918;2023-12-29T12:15:32;3.80;;;3.07;;
13218;SDS011;6674;49.152;11.918;2023-12-29T12:18:00;3.47;;;3.17;;
13218;SDS011;6674;49.152;11.918;2023-12-29T12:20:30;3.50;;;3.20;;
13218;SDS011;6674;49.152;11.918;2023-12-29T12:22:57;3.20;;;2.90;;
13218;SDS011;6674;49.152;11.918;2023-12-29T12:25:25;3.20;;;2.90;;
13218;SDS011;6674;49.152;11.918;2023-12-29T12:27:52;3.33;;;3.03;;
13218;SDS011;6674;49.152;11.918;2023-12-29T12:30:20;3.90;;;3.37;;
13218;SDS011;6674;49.152;11.918;2023-12-29T12:32:46;3.70;;;3.00;;
13218;SDS011;6674;49.152;11.918;2023-12-29T12:35:13;3.17;;;2.87;;
13218;SDS011;6674;49.152;11.918;2023-12-29T12:37:41;3.77;;;3.07;;
13218;SDS011;6674;49.152;11.918;2023-12-29T12:40:08;3.17;;;2.87;;
13218;SDS011;6674;49.152;11.918;2023-12-29T12:42:38;4.27;;;3.20;;
13218;SDS011;6674;49.152;11.918;2023-12-29T12:45:06;3.33;;;3.00;;
13218;SDS011;6674;49.152;11.918;2023-12-29T12:47:33;3.17;;;2.90;;
13218;SDS011;6674;49.152;11.918;2023-12-29T12:50:00;3.30;;;3.00;;
13218;SDS011;6674;49.152;11.918;2023-12-29T12:52:30;3.50;;;3.20;;
13218;SDS011;6674;49.152;11.918;2023-12-29T12:54:57;3.40;;;3.07;;
13218;SDS011;6674;49.152;11.918;2023-12-29T12:57:24;3.50;;;3.20;;
13218;SDS011;6674;49.152;11.918;2023-12-29T12:59:51;3.10;;;2.90;;
13218;SDS011;6674;49.152;11.918;2023-12-29T13:02:20;3.00;;;2.80;;
13218;SDS011;6674;49.152;11.918;2023-12-29T13:04:47;3.23;;;2.70;;
13218;SDS011;6674;49.152;11.918;2023-12-29T13:07:15;3.37;;;3.07;;
13218;SDS011;6674;49.152;11.918;2023-12-29T13:09:41;3.10;;;2.80;;
13218;SDS011;6674;49.152;11.918;2023-12-29T13:12:10;3.17;;;2.87;;
13218;SDS011;6674;49.152;11.918;2023-12-29T13:14:36;3.07;;;2.80;;
13218;SDS011;6674;49.152;11.918;2023-12-29T13:17:06;3.13;;;2.93;;
13218;SDS011;6674;49.152;11.918;2023-12-29T13:19:33;3.00;;;2.80;;
13218;SDS011;6674;49.152;11.918;2023-12-29T13:22:01;3.27;;;2.90;;
13218;SDS011;6674;49.152;11.918;2023-12-29T13:24:29;3.10;;;2.90;;
13218;SDS011;6674;49.152;11.918;2023-12-29T13:26:57;3.10;;;2.80;;
13218;SDS011;6674;49.152;11.918;2023-12-29T13:29:25;3.63;;;3.33;;
13218;SDS011;6674;49.152;11.918;2023-12-29T13:31:54;2.90;;;2.70;;
13218;SDS011;6674;49.152;11.918;2023-12-29T13:34:23;3.90;;;3.10;;
13218;SDS011;6674;49.152;11.918;2023-12-29T13:36:54;3.50;;;3.20;;
13218;SDS011;6674;49.152;11.918;2023-12-29T13:39:27;3.07;;;2.83;;
13218;SDS011;6674;49.152;11.918;2023-12-29T13:41:55;3.70;;;3.40;;
13218;SDS011;6674;49.152;11.918;2023-12-29T13:44:22;3.27;;;2.97;;
13218;SDS011;6674;49.152;11.918;2023-12-29T13:46:56;3.43;;;3.00;;
13218;SDS011;6674;49.152;11.918;2023-12-29T13:49:23;3.50;;;3.20;;
13218;SDS011;6674;49.152;11.918;2023-12-29T13:51:49;3.77;;;3.17;;
13218;SDS011;6674;49.152;11.918;2023-12-29T13:54:16;3.83;;;3.10;;
13218;SDS011;6674;49.152;11.918;2023-12-29T13:56:53;3.30;;;3.00;;
13218;SDS011;6674;49.152;11.918;2023-12-29T13:59:28;4.13;;;3.53;;
13218;SDS011;6674;49.152;11.918;2023-12-29T14:01:57;3.50;;;3.20;;
13218;SDS011;6674;49.152;11.918;2023-12-29T14:04:25;3.83;;;2.97;;
13218;SDS011;6674;49.152;11.918;2023-12-29T14:06:52;3.83;;;2.90;;
13218;SDS011;6674;49.152;11.918;2023-12-29T14:09:20;3.33;;;3.03;;
13218;SDS011;6674;49.152;11.918;2023-12-29T14:11:47;3.40;;;3.10;;
13218;SDS011;6674;49.152;11.918;2023-12-29T14:14:13;3.30;;;3.00;;
13218;SDS011;6674;49.152;11.918;2023-12-29T14:16:40;3.27;;;2.97;;
13218;SDS011;6674;49.152;11.918;2023-12-29T14:19:08;3.10;;;2.80;;
13218;SDS011;6674;49.152;11.918;2023-12-29T14:21:36;3.57;;;2.97;;
13218;SDS011;6674;49.152;11.918;2023-12-29T14:24:09;2.90;;;2.70;;
13218;SDS011;6674;49.152;11.918;2023-12-29T14:26:35;3.37;;;3.07;;
13218;SDS011;6674;49.152;11.918;2023-12-29T14:29:03;3.40;;;3.10;;
13218;SDS011;6674;49.152;11.918;2023-12-29T14:31:36;5.13;;;3.27;;
13218;SDS011;6674;49.152;11.918;2023-12-29T14:34:03;3.10;;;2.90;;
13218;SDS011;6674;49.152;11.918;2023-12-29T14:36:31;3.20;;;2.90;;
13218;SDS011;6674;49.152;11.918;2023-12-29T14:38:58;3.10;;;2.90;;
13218;SDS011;6674;49.152;11.918;2023-12-29T14:41:24;3.47;;;2.73;;
13218;SDS011;6674;49.152;11.918;2023-12-29T14:43:52;3.47;;;3.17;;
13218;SDS011;6674;49.152;11.918;2023-12-29T14:46:19;3.53;;;3.23;;
13218;SDS011;6674;49.152;11.918;2023-12-29T14:48:45;3.40;;;3.10;;
13218;SDS011;6674;49.152;11.918;2023-12-29T14:51:12;3.60;;;3.30;;